Terminal Aerodrome Forecast
Issued by NWS

Home | Current Version | Previous Version | Graphics & Text | Print | Product List | Glossary On
Versions: 1 2 3 4 5 6 7 8 9 10 11 12
000
FTUS43 KICT 201740
TAFCNU
TAF
KCNU 201740Z 2018/2118 20023G31KT P6SM SKC
     FM210100 20015KT P6SM FEW250
     FM211200 21009KT P6SM BKN150
     FM211400 29008KT P6SM BKN120
     FM211700 35015G22KT P6SM BKN100=

USA.gov is the U.S. government's official web portal to all federal, state and local government web resources and services.